sensor_id;sensor_type;location;lat;lon;timestamp;P1;durP1;ratioP1;P2;durP2;ratioP2
16177;SDS011;8195;51.220;9.746;2023-05-10T00:07:15;13.07;;;11.97;;
16177;SDS011;8195;51.220;9.746;2023-05-10T00:17:36;12.67;;;11.43;;
16177;SDS011;8195;51.220;9.746;2023-05-10T00:28:04;11.60;;;10.60;;
16177;SDS011;8195;51.220;9.746;2023-05-10T00:38:33;10.13;;;9.27;;
16177;SDS011;8195;51.220;9.746;2023-05-10T00:49:05;7.67;;;7.00;;
16177;SDS011;8195;51.220;9.746;2023-05-10T01:43:51;6.83;;;6.33;;
16177;SDS011;8195;51.220;9.746;2023-05-10T01:54:08;6.47;;;5.90;;
16177;SDS011;8195;51.220;9.746;2023-05-10T02:04:34;7.03;;;6.33;;
16177;SDS011;8195;51.220;9.746;2023-05-10T02:14:58;6.43;;;5.83;;
16177;SDS011;8195;51.220;9.746;2023-05-10T02:25:22;6.87;;;6.27;;
16177;SDS011;8195;51.220;9.746;2023-05-10T02:35:45;6.10;;;5.60;;
16177;SDS011;8195;51.220;9.746;2023-05-10T02:46:07;5.50;;;5.10;;
16177;SDS011;8195;51.220;9.746;2023-05-10T02:56:28;6.30;;;5.70;;
16177;SDS011;8195;51.220;9.746;2023-05-10T03:06:54;5.33;;;4.93;;
16177;SDS011;8195;51.220;9.746;2023-05-10T03:17:22;5.17;;;4.77;;
16177;SDS011;8195;51.220;9.746;2023-05-10T03:27:49;6.47;;;6.07;;
16177;SDS011;8195;51.220;9.746;2023-05-10T03:38:12;4.80;;;4.50;;
16177;SDS011;8195;51.220;9.746;2023-05-10T03:48:36;2.53;;;2.37;;
16177;SDS011;8195;51.220;9.746;2023-05-10T03:59:06;2.13;;;1.70;;
16177;SDS011;8195;51.220;9.746;2023-05-10T04:09:26;3.37;;;2.13;;
16177;SDS011;8195;51.220;9.746;2023-05-10T04:19:48;1.80;;;1.60;;
16177;SDS011;8195;51.220;9.746;2023-05-10T04:30:09;2.60;;;2.27;;
16177;SDS011;8195;51.220;9.746;2023-05-10T04:40:30;2.40;;;2.30;;
16177;SDS011;8195;51.220;9.746;2023-05-10T04:50:51;2.20;;;2.10;;
16177;SDS011;8195;51.220;9.746;2023-05-10T05:01:11;2.63;;;2.43;;
16177;SDS011;8195;51.220;9.746;2023-05-10T05:11:33;2.50;;;2.30;;
16177;SDS011;8195;51.220;9.746;2023-05-10T05:21:53;2.57;;;2.37;;
16177;SDS011;8195;51.220;9.746;2023-05-10T05:32:14;3.63;;;3.43;;
16177;SDS011;8195;51.220;9.746;2023-05-10T05:42:35;3.23;;;3.03;;
16177;SDS011;8195;51.220;9.746;2023-05-10T05:52:56;2.43;;;2.33;;
16177;SDS011;8195;51.220;9.746;2023-05-10T06:03:17;2.20;;;2.10;;
16177;SDS011;8195;51.220;9.746;2023-05-10T06:13:39;0.83;;;0.83;;
16177;SDS011;8195;51.220;9.746;2023-05-10T06:23:59;0.50;;;0.50;;
16177;SDS011;8195;51.220;9.746;2023-05-10T06:34:20;1.00;;;1.00;;
16177;SDS011;8195;51.220;9.746;2023-05-10T06:44:41;1.33;;;1.23;;
16177;SDS011;8195;51.220;9.746;2023-05-10T06:55:03;2.23;;;2.13;;
16177;SDS011;8195;51.220;9.746;2023-05-10T07:05:24;2.50;;;2.30;;
16177;SDS011;8195;51.220;9.746;2023-05-10T07:15:46;2.33;;;2.23;;
16177;SDS011;8195;51.220;9.746;2023-05-10T07:26:10;2.77;;;2.67;;
16177;SDS011;8195;51.220;9.746;2023-05-10T07:36:51;2.97;;;2.77;;
16177;SDS011;8195;51.220;9.746;2023-05-10T07:47:23;2.50;;;2.40;;
16177;SDS011;8195;51.220;9.746;2023-05-10T07:57:47;2.17;;;2.07;;
16177;SDS011;8195;51.220;9.746;2023-05-10T08:18:52;3.00;;;2.80;;
16177;SDS011;8195;51.220;9.746;2023-05-10T08:40:50;1.90;;;1.80;;
16177;SDS011;8195;51.220;9.746;2023-05-10T08:51:40;2.00;;;1.87;;
16177;SDS011;8195;51.220;9.746;2023-05-10T09:02:04;2.07;;;1.97;;
16177;SDS011;8195;51.220;9.746;2023-05-10T09:12:36;2.33;;;1.97;;
16177;SDS011;8195;51.220;9.746;2023-05-10T09:23:04;2.70;;;2.03;;
16177;SDS011;8195;51.220;9.746;2023-05-10T09:33:25;3.03;;;2.00;;
16177;SDS011;8195;51.220;9.746;2023-05-10T09:44:09;2.20;;;1.90;;
16177;SDS011;8195;51.220;9.746;2023-05-10T09:54:42;2.40;;;1.70;;
16177;SDS011;8195;51.220;9.746;2023-05-10T10:05:58;2.43;;;2.23;;
16177;SDS011;8195;51.220;9.746;2023-05-10T10:16:34;3.37;;;2.70;;
16177;SDS011;8195;51.220;9.746;2023-05-10T10:27:01;3.67;;;2.60;;
16177;SDS011;8195;51.220;9.746;2023-05-10T10:37:45;3.10;;;2.73;;
16177;SDS011;8195;51.220;9.746;2023-05-10T10:58:59;2.67;;;2.47;;
16177;SDS011;8195;51.220;9.746;2023-05-10T11:09:23;4.60;;;3.23;;
16177;SDS011;8195;51.220;9.746;2023-05-10T11:20:07;3.77;;;3.17;;
16177;SDS011;8195;51.220;9.746;2023-05-10T11:30:30;3.23;;;2.93;;
16177;SDS011;8195;51.220;9.746;2023-05-10T11:40:51;2.60;;;2.40;;
16177;SDS011;8195;51.220;9.746;2023-05-10T11:51:21;3.20;;;2.90;;
16177;SDS011;8195;51.220;9.746;2023-05-10T12:01:44;3.00;;;2.80;;
16177;SDS011;8195;51.220;9.746;2023-05-10T12:23:08;3.53;;;3.07;;
16177;SDS011;8195;51.220;9.746;2023-05-10T12:33:36;3.50;;;3.20;;
16177;SDS011;8195;51.220;9.746;2023-05-10T12:44:04;3.53;;;3.10;;
16177;SDS011;8195;51.220;9.746;2023-05-10T12:54:26;3.83;;;2.93;;
16177;SDS011;8195;51.220;9.746;2023-05-10T13:04:56;3.73;;;3.20;;
16177;SDS011;8195;51.220;9.746;2023-05-10T13:15:36;4.07;;;3.67;;
16177;SDS011;8195;51.220;9.746;2023-05-10T13:26:00;4.77;;;4.37;;
16177;SDS011;8195;51.220;9.746;2023-05-10T13:36:27;4.33;;;3.70;;
16177;SDS011;8195;51.220;9.746;2023-05-10T13:47:07;5.30;;;4.47;;
16177;SDS011;8195;51.220;9.746;2023-05-10T14:19:58;5.87;;;5.07;;
16177;SDS011;8195;51.220;9.746;2023-05-10T14:30:25;3.07;;;2.73;;
16177;SDS011;8195;51.220;9.746;2023-05-10T14:40:55;1.67;;;1.57;;
16177;SDS011;8195;51.220;9.746;2023-05-10T14:51:42;3.07;;;2.87;;
16177;SDS011;8195;51.220;9.746;2023-05-10T15:02:17;4.20;;;3.30;;
16177;SDS011;8195;51.220;9.746;2023-05-10T15:12:41;4.03;;;3.37;;
16177;SDS011;8195;51.220;9.746;2023-05-10T15:23:06;4.87;;;3.80;;
16177;SDS011;8195;51.220;9.746;2023-05-10T15:33:43;4.53;;;3.20;;
16177;SDS011;8195;51.220;9.746;2023-05-10T15:44:47;3.50;;;3.20;;
16177;SDS011;8195;51.220;9.746;2023-05-10T15:55:25;3.97;;;3.57;;
16177;SDS011;8195;51.220;9.746;2023-05-10T16:05:56;5.00;;;3.13;;
16177;SDS011;8195;51.220;9.746;2023-05-10T16:16:56;3.07;;;2.83;;
16177;SDS011;8195;51.220;9.746;2023-05-10T16:27:20;3.03;;;2.67;;
16177;SDS011;8195;51.220;9.746;2023-05-10T16:37:47;3.77;;;2.47;;
16177;SDS011;8195;51.220;9.746;2023-05-10T16:59:29;2.60;;;2.10;;
16177;SDS011;8195;51.220;9.746;2023-05-10T17:20:47;3.10;;;2.80;;
16177;SDS011;8195;51.220;9.746;2023-05-10T17:31:14;4.10;;;3.80;;
16177;SDS011;8195;51.220;9.746;2023-05-10T17:41:55;2.80;;;2.33;;
16177;SDS011;8195;51.220;9.746;2023-05-10T17:52:17;3.80;;;3.13;;
16177;SDS011;8195;51.220;9.746;2023-05-10T18:02:47;2.40;;;2.20;;
16177;SDS011;8195;51.220;9.746;2023-05-10T18:13:11;2.33;;;2.00;;
16177;SDS011;8195;51.220;9.746;2023-05-10T18:23:32;2.93;;;2.73;;
16177;SDS011;8195;51.220;9.746;2023-05-10T18:33:53;3.20;;;2.90;;
16177;SDS011;8195;51.220;9.746;2023-05-10T18:55:36;5.03;;;3.30;;
16177;SDS011;8195;51.220;9.746;2023-05-10T19:05:57;3.43;;;3.13;;
16177;SDS011;8195;51.220;9.746;2023-05-10T19:16:27;4.00;;;3.37;;
16177;SDS011;8195;51.220;9.746;2023-05-10T19:27:07;4.53;;;3.30;;
16177;SDS011;8195;51.220;9.746;2023-05-10T19:37:55;3.80;;;3.40;;
16177;SDS011;8195;51.220;9.746;2023-05-10T20:10:05;4.57;;;3.20;;
16177;SDS011;8195;51.220;9.746;2023-05-10T20:20:32;4.73;;;4.33;;
16177;SDS011;8195;51.220;9.746;2023-05-10T20:31:20;5.53;;;5.03;;
16177;SDS011;8195;51.220;9.746;2023-05-10T20:41:47;6.00;;;5.30;;
16177;SDS011;8195;51.220;9.746;2023-05-10T20:52:08;6.43;;;5.83;;
16177;SDS011;8195;51.220;9.746;2023-05-10T21:02:29;6.80;;;6.20;;
16177;SDS011;8195;51.220;9.746;2023-05-10T21:12:50;7.53;;;6.73;;
16177;SDS011;8195;51.220;9.746;2023-05-10T21:23:11;8.53;;;7.73;;
16177;SDS011;8195;51.220;9.746;2023-05-10T21:33:32;6.90;;;6.20;;
16177;SDS011;8195;51.220;9.746;2023-05-10T21:43:53;5.80;;;5.30;;
16177;SDS011;8195;51.220;9.746;2023-05-10T21:54:14;5.67;;;4.97;;
16177;SDS011;8195;51.220;9.746;2023-05-10T22:04:35;9.17;;;7.50;;
16177;SDS011;8195;51.220;9.746;2023-05-10T22:14:55;10.70;;;9.67;;
16177;SDS011;8195;51.220;9.746;2023-05-10T22:25:26;8.40;;;7.57;;
16177;SDS011;8195;51.220;9.746;2023-05-10T22:35:46;8.53;;;7.60;;
16177;SDS011;8195;51.220;9.746;2023-05-10T22:46:07;6.90;;;6.20;;
16177;SDS011;8195;51.220;9.746;2023-05-10T22:56:30;6.37;;;5.77;;
16177;SDS011;8195;51.220;9.746;2023-05-10T23:06:52;8.30;;;6.60;;
16177;SDS011;8195;51.220;9.746;2023-05-10T23:17:13;9.83;;;7.43;;
16177;SDS011;8195;51.220;9.746;2023-05-10T23:27:37;8.37;;;7.20;;
16177;SDS011;8195;51.220;9.746;2023-05-10T23:37:58;8.47;;;6.73;;
16177;SDS011;8195;51.220;9.746;2023-05-10T23:48:31;11.97;;;8.10;;
16177;SDS011;8195;51.220;9.746;2023-05-10T23:58:52;10.20;;;6.93;;
